sensor_id;sensor_type;location;lat;lon;timestamp;P1;durP1;ratioP1;P2;durP2;ratioP2
23617;SDS011;18207;32.078;34.818;2024-01-15T00:00:11;1.23;;;0.88;;
23617;SDS011;18207;32.078;34.818;2024-01-15T00:02:42;0.70;;;0.60;;
23617;SDS011;18207;32.078;34.818;2024-01-15T00:05:12;1.65;;;0.90;;
23617;SDS011;18207;32.078;34.818;2024-01-15T00:07:43;0.60;;;0.60;;
23617;SDS011;18207;32.078;34.818;2024-01-15T00:10:13;0.90;;;0.57;;
23617;SDS011;18207;32.078;34.818;2024-01-15T00:12:43;0.82;;;0.82;;
23617;SDS011;18207;32.078;34.818;2024-01-15T00:15:12;0.88;;;0.70;;
23617;SDS011;18207;32.078;34.818;2024-01-15T00:17:43;0.73;;;0.73;;
23617;SDS011;18207;32.078;34.818;2024-01-15T00:20:13;0.60;;;0.60;;
23617;SDS011;18207;32.078;34.818;2024-01-15T00:22:44;0.68;;;0.68;;
23617;SDS011;18207;32.078;34.818;2024-01-15T00:25:14;0.70;;;0.68;;
23617;SDS011;18207;32.078;34.818;2024-01-15T00:27:44;0.70;;;0.70;;
23617;SDS011;18207;32.078;34.818;2024-01-15T00:30:14;1.00;;;0.85;;
23617;SDS011;18207;32.078;34.818;2024-01-15T00:32:44;0.60;;;0.60;;
23617;SDS011;18207;32.078;34.818;2024-01-15T00:35:14;0.80;;;0.80;;
23617;SDS011;18207;32.078;34.818;2024-01-15T00:37:45;0.60;;;0.60;;
23617;SDS011;18207;32.078;34.818;2024-01-15T00:40:15;1.15;;;0.90;;
23617;SDS011;18207;32.078;34.818;2024-01-15T00:42:45;0.70;;;0.68;;
23617;SDS011;18207;32.078;34.818;2024-01-15T00:45:15;1.17;;;0.70;;
23617;SDS011;18207;32.078;34.818;2024-01-15T00:47:45;0.70;;;0.65;;
23617;SDS011;18207;32.078;34.818;2024-01-15T00:50:14;0.80;;;0.80;;
23617;SDS011;18207;32.078;34.818;2024-01-15T00:52:46;0.52;;;0.52;;
23617;SDS011;18207;32.078;34.818;2024-01-15T00:55:16;0.70;;;0.70;;
23617;SDS011;18207;32.078;34.818;2024-01-15T00:57:46;0.77;;;0.70;;
23617;SDS011;18207;32.078;34.818;2024-01-15T01:00:16;0.73;;;0.73;;
23617;SDS011;18207;32.078;34.818;2024-01-15T01:02:46;0.80;;;0.80;;
23617;SDS011;18207;32.078;34.818;2024-01-15T01:05:16;0.93;;;0.82;;
23617;SDS011;18207;32.078;34.818;2024-01-15T01:07:47;0.75;;;0.75;;
23617;SDS011;18207;32.078;34.818;2024-01-15T01:10:17;0.93;;;0.77;;
23617;SDS011;18207;32.078;34.818;2024-01-15T01:12:50;0.90;;;0.77;;
23617;SDS011;18207;32.078;34.818;2024-01-15T01:15:20;0.73;;;0.68;;
23617;SDS011;18207;32.078;34.818;2024-01-15T01:17:51;1.20;;;0.73;;
23617;SDS011;18207;32.078;34.818;2024-01-15T01:20:21;0.65;;;0.65;;
23617;SDS011;18207;32.078;34.818;2024-01-15T01:22:53;0.80;;;0.80;;
23617;SDS011;18207;32.078;34.818;2024-01-15T01:25:23;0.73;;;0.73;;
23617;SDS011;18207;32.078;34.818;2024-01-15T01:27:53;0.73;;;0.60;;
23617;SDS011;18207;32.078;34.818;2024-01-15T01:30:23;0.57;;;0.57;;
23617;SDS011;18207;32.078;34.818;2024-01-15T01:32:53;0.90;;;0.90;;
23617;SDS011;18207;32.078;34.818;2024-01-15T01:35:22;0.65;;;0.65;;
23617;SDS011;18207;32.078;34.818;2024-01-15T01:37:54;0.80;;;0.80;;
23617;SDS011;18207;32.078;34.818;2024-01-15T01:40:23;0.70;;;0.70;;
23617;SDS011;18207;32.078;34.818;2024-01-15T01:42:53;0.70;;;0.70;;
23617;SDS011;18207;32.078;34.818;2024-01-15T01:45:23;0.88;;;0.80;;
23617;SDS011;18207;32.078;34.818;2024-01-15T01:50:37;0.63;;;0.63;;
23617;SDS011;18207;32.078;34.818;2024-01-15T01:53:09;1.35;;;0.85;;
23617;SDS011;18207;32.078;34.818;2024-01-15T01:55:39;0.75;;;0.75;;
23617;SDS011;18207;32.078;34.818;2024-01-15T01:58:18;0.60;;;0.60;;
23617;SDS011;18207;32.078;34.818;2024-01-15T02:00:48;0.98;;;0.75;;
23617;SDS011;18207;32.078;34.818;2024-01-15T02:03:21;0.77;;;0.77;;
23617;SDS011;18207;32.078;34.818;2024-01-15T02:05:52;0.98;;;0.88;;
23617;SDS011;18207;32.078;34.818;2024-01-15T02:08:24;0.55;;;0.52;;
23617;SDS011;18207;32.078;34.818;2024-01-15T02:10:55;0.85;;;0.80;;
23617;SDS011;18207;32.078;34.818;2024-01-15T02:13:25;0.60;;;0.43;;
23617;SDS011;18207;32.078;34.818;2024-01-15T02:15:55;0.70;;;0.70;;
23617;SDS011;18207;32.078;34.818;2024-01-15T02:18:24;0.63;;;0.63;;
23617;SDS011;18207;32.078;34.818;2024-01-15T02:20:54;0.88;;;0.88;;
23617;SDS011;18207;32.078;34.818;2024-01-15T02:23:26;0.77;;;0.77;;
23617;SDS011;18207;32.078;34.818;2024-01-15T02:25:55;0.68;;;0.68;;
23617;SDS011;18207;32.078;34.818;2024-01-15T02:28:25;0.57;;;0.57;;
23617;SDS011;18207;32.078;34.818;2024-01-15T02:30:55;0.65;;;0.65;;
23617;SDS011;18207;32.078;34.818;2024-01-15T02:33:25;0.70;;;0.70;;
23617;SDS011;18207;32.078;34.818;2024-01-15T02:35:55;0.55;;;0.43;;
23617;SDS011;18207;32.078;34.818;2024-01-15T02:38:26;0.85;;;0.60;;
23617;SDS011;18207;32.078;34.818;2024-01-15T02:40:56;0.70;;;0.70;;
23617;SDS011;18207;32.078;34.818;2024-01-15T02:43:26;0.60;;;0.60;;
23617;SDS011;18207;32.078;34.818;2024-01-15T02:45:56;0.60;;;0.60;;
23617;SDS011;18207;32.078;34.818;2024-01-15T02:48:26;0.70;;;0.63;;
23617;SDS011;18207;32.078;34.818;2024-01-15T02:50:56;0.93;;;0.90;;
23617;SDS011;18207;32.078;34.818;2024-01-15T02:53:27;0.68;;;0.60;;
23617;SDS011;18207;32.078;34.818;2024-01-15T02:55:57;0.60;;;0.60;;
23617;SDS011;18207;32.078;34.818;2024-01-15T02:58:27;0.47;;;0.47;;
23617;SDS011;18207;32.078;34.818;2024-01-15T03:00:57;0.60;;;0.57;;
23617;SDS011;18207;32.078;34.818;2024-01-15T03:03:27;0.60;;;0.60;;
23617;SDS011;18207;32.078;34.818;2024-01-15T03:05:57;0.50;;;0.50;;
23617;SDS011;18207;32.078;34.818;2024-01-15T03:08:29;0.73;;;0.73;;
23617;SDS011;18207;32.078;34.818;2024-01-15T03:10:59;0.60;;;0.60;;
23617;SDS011;18207;32.078;34.818;2024-01-15T03:13:29;0.70;;;0.60;;
23617;SDS011;18207;32.078;34.818;2024-01-15T03:15:59;0.40;;;0.40;;
23617;SDS011;18207;32.078;34.818;2024-01-15T03:18:28;0.73;;;0.50;;
23617;SDS011;18207;32.078;34.818;2024-01-15T03:20:58;0.40;;;0.40;;
23617;SDS011;18207;32.078;34.818;2024-01-15T03:23:31;0.77;;;0.77;;
23617;SDS011;18207;32.078;34.818;2024-01-15T03:26:00;0.60;;;0.55;;
23617;SDS011;18207;32.078;34.818;2024-01-15T03:28:30;0.60;;;0.60;;
23617;SDS011;18207;32.078;34.818;2024-01-15T03:31:00;0.40;;;0.40;;
23617;SDS011;18207;32.078;34.818;2024-01-15T03:33:30;0.60;;;0.60;;
23617;SDS011;18207;32.078;34.818;2024-01-15T03:36:00;0.32;;;0.32;;
23617;SDS011;18207;32.078;34.818;2024-01-15T03:38:31;0.55;;;0.55;;
23617;SDS011;18207;32.078;34.818;2024-01-15T03:41:01;1.05;;;0.70;;
23617;SDS011;18207;32.078;34.818;2024-01-15T03:43:31;0.47;;;0.45;;
23617;SDS011;18207;32.078;34.818;2024-01-15T03:46:01;0.52;;;0.52;;
23617;SDS011;18207;32.078;34.818;2024-01-15T03:48:31;0.35;;;0.35;;
23617;SDS011;18207;32.078;34.818;2024-01-15T03:51:01;0.38;;;0.38;;
23617;SDS011;18207;32.078;34.818;2024-01-15T03:53:33;0.50;;;0.50;;
23617;SDS011;18207;32.078;34.818;2024-01-15T03:56:03;0.65;;;0.52;;
23617;SDS011;18207;32.078;34.818;2024-01-15T03:58:33;0.47;;;0.47;;
23617;SDS011;18207;32.078;34.818;2024-01-15T04:01:03;0.70;;;0.60;;
23617;SDS011;18207;32.078;34.818;2024-01-15T04:03:37;0.60;;;0.60;;
23617;SDS011;18207;32.078;34.818;2024-01-15T04:06:07;0.60;;;0.60;;
23617;SDS011;18207;32.078;34.818;2024-01-15T04:08:41;0.85;;;0.65;;
23617;SDS011;18207;32.078;34.818;2024-01-15T04:11:11;1.95;;;0.90;;
23617;SDS011;18207;32.078;34.818;2024-01-15T04:13:41;0.85;;;0.80;;
23617;SDS011;18207;32.078;34.818;2024-01-15T04:16:11;0.80;;;0.80;;
23617;SDS011;18207;32.078;34.818;2024-01-15T04:18:40;0.80;;;0.70;;
23617;SDS011;18207;32.078;34.818;2024-01-15T04:21:10;0.57;;;0.57;;
23617;SDS011;18207;32.078;34.818;2024-01-15T04:23:44;0.65;;;0.65;;
23617;SDS011;18207;32.078;34.818;2024-01-15T04:26:14;0.80;;;0.80;;
23617;SDS011;18207;32.078;34.818;2024-01-15T04:28:44;1.63;;;0.90;;
23617;SDS011;18207;32.078;34.818;2024-01-15T04:31:25;0.77;;;0.77;;
23617;SDS011;18207;32.078;34.818;2024-01-15T04:34:20;0.85;;;0.85;;
23617;SDS011;18207;32.078;34.818;2024-01-15T04:36:54;0.73;;;0.73;;
23617;SDS011;18207;32.078;34.818;2024-01-15T04:39:25;0.95;;;0.88;;
23617;SDS011;18207;32.078;34.818;2024-01-15T04:41:55;1.20;;;1.10;;
23617;SDS011;18207;32.078;34.818;2024-01-15T04:44:25;0.70;;;0.70;;
23617;SDS011;18207;32.078;34.818;2024-01-15T04:46:55;0.82;;;0.82;;
23617;SDS011;18207;32.078;34.818;2024-01-15T04:49:25;0.80;;;0.80;;
23617;SDS011;18207;32.078;34.818;2024-01-15T04:51:56;0.90;;;0.90;;
23617;SDS011;18207;32.078;34.818;2024-01-15T04:54:28;0.85;;;0.85;;
23617;SDS011;18207;32.078;34.818;2024-01-15T04:56:57;0.88;;;0.85;;
23617;SDS011;18207;32.078;34.818;2024-01-15T04:59:27;1.40;;;1.00;;
23617;SDS011;18207;32.078;34.818;2024-01-15T05:01:57;1.17;;;1.08;;
23617;SDS011;18207;32.078;34.818;2024-01-15T05:04:27;1.10;;;1.00;;
23617;SDS011;18207;32.078;34.818;2024-01-15T05:06:57;1.13;;;1.13;;
23617;SDS011;18207;32.078;34.818;2024-01-15T05:09:28;1.20;;;1.00;;
23617;SDS011;18207;32.078;34.818;2024-01-15T05:12:02;1.30;;;1.20;;
23617;SDS011;18207;32.078;34.818;2024-01-15T05:14:35;1.35;;;1.00;;
23617;SDS011;18207;32.078;34.818;2024-01-15T05:17:06;1.38;;;1.27;;
23617;SDS011;18207;32.078;34.818;2024-01-15T05:19:38;1.10;;;1.00;;
23617;SDS011;18207;32.078;34.818;2024-01-15T05:22:11;1.15;;;1.08;;
23617;SDS011;18207;32.078;34.818;2024-01-15T05:24:45;1.00;;;1.00;;
23617;SDS011;18207;32.078;34.818;2024-01-15T05:27:17;1.20;;;1.10;;
23617;SDS011;18207;32.078;34.818;2024-01-15T05:29:50;1.02;;;1.02;;
23617;SDS011;18207;32.078;34.818;2024-01-15T05:32:23;0.95;;;0.85;;
23617;SDS011;18207;32.078;34.818;2024-01-15T05:34:53;1.15;;;1.05;;
23617;SDS011;18207;32.078;34.818;2024-01-15T05:37:24;1.15;;;1.05;;
23617;SDS011;18207;32.078;34.818;2024-01-15T05:39:56;1.00;;;1.00;;
23617;SDS011;18207;32.078;34.818;2024-01-15T05:42:27;0.95;;;0.95;;
23617;SDS011;18207;32.078;34.818;2024-01-15T05:44:59;1.15;;;0.98;;
23617;SDS011;18207;32.078;34.818;2024-01-15T05:47:31;1.10;;;0.90;;
23617;SDS011;18207;32.078;34.818;2024-01-15T05:50:01;1.40;;;1.23;;
23617;SDS011;18207;32.078;34.818;2024-01-15T05:52:32;1.27;;;1.17;;
23617;SDS011;18207;32.078;34.818;2024-01-15T05:55:03;1.42;;;1.20;;
23617;SDS011;18207;32.078;34.818;2024-01-15T05:57:34;1.20;;;1.00;;
23617;SDS011;18207;32.078;34.818;2024-01-15T06:00:04;1.13;;;0.90;;
23617;SDS011;18207;32.078;34.818;2024-01-15T06:02:37;1.23;;;1.00;;
23617;SDS011;18207;32.078;34.818;2024-01-15T06:05:06;1.00;;;0.95;;
23617;SDS011;18207;32.078;34.818;2024-01-15T06:07:36;1.02;;;1.02;;
23617;SDS011;18207;32.078;34.818;2024-01-15T06:10:08;0.80;;;0.80;;
23617;SDS011;18207;32.078;34.818;2024-01-15T06:12:38;2.45;;;1.10;;
23617;SDS011;18207;32.078;34.818;2024-01-15T06:15:09;1.10;;;0.93;;
23617;SDS011;18207;32.078;34.818;2024-01-15T06:17:39;0.90;;;0.90;;
23617;SDS011;18207;32.078;34.818;2024-01-15T06:20:09;1.13;;;1.08;;
23617;SDS011;18207;32.078;34.818;2024-01-15T06:22:40;0.50;;;0.50;;
23617;SDS011;18207;32.078;34.818;2024-01-15T06:25:12;0.77;;;0.77;;
23617;SDS011;18207;32.078;34.818;2024-01-15T06:27:42;0.57;;;0.57;;
23617;SDS011;18207;32.078;34.818;2024-01-15T06:30:12;1.08;;;0.90;;
23617;SDS011;18207;32.078;34.818;2024-01-15T06:32:43;1.10;;;0.93;;
23617;SDS011;18207;32.078;34.818;2024-01-15T06:35:13;0.80;;;0.80;;
23617;SDS011;18207;32.078;34.818;2024-01-15T06:37:47;0.93;;;0.93;;
23617;SDS011;18207;32.078;34.818;2024-01-15T06:40:19;0.77;;;0.77;;
23617;SDS011;18207;32.078;34.818;2024-01-15T06:42:49;0.80;;;0.80;;
23617;SDS011;18207;32.078;34.818;2024-01-15T06:45:18;1.15;;;1.08;;
23617;SDS011;18207;32.078;34.818;2024-01-15T06:47:57;0.95;;;0.77;;
23617;SDS011;18207;32.078;34.818;2024-01-15T06:50:36;0.70;;;0.70;;
23617;SDS011;18207;32.078;34.818;2024-01-15T06:53:05;0.80;;;0.80;;
23617;SDS011;18207;32.078;34.818;2024-01-15T06:55:37;1.02;;;0.85;;
23617;SDS011;18207;32.078;34.818;2024-01-15T06:58:16;0.80;;;0.80;;
23617;SDS011;18207;32.078;34.818;2024-01-15T07:00:46;0.80;;;0.80;;
23617;SDS011;18207;32.078;34.818;2024-01-15T07:03:16;0.75;;;0.70;;
23617;SDS011;18207;32.078;34.818;2024-01-15T07:05:45;0.95;;;0.80;;
23617;SDS011;18207;32.078;34.818;2024-01-15T07:08:15;0.85;;;0.85;;
23617;SDS011;18207;32.078;34.818;2024-01-15T07:10:47;0.90;;;0.90;;
23617;SDS011;18207;32.078;34.818;2024-01-15T07:13:16;0.90;;;0.90;;
23617;SDS011;18207;32.078;34.818;2024-01-15T07:15:46;1.05;;;1.00;;
23617;SDS011;18207;32.078;34.818;2024-01-15T07:18:18;0.73;;;0.73;;
23617;SDS011;18207;32.078;34.818;2024-01-15T07:20:49;0.75;;;0.75;;
23617;SDS011;18207;32.078;34.818;2024-01-15T07:23:19;0.65;;;0.65;;
23617;SDS011;18207;32.078;34.818;2024-01-15T07:25:51;0.90;;;0.68;;
23617;SDS011;18207;32.078;34.818;2024-01-15T07:28:21;0.80;;;0.80;;
23617;SDS011;18207;32.078;34.818;2024-01-15T07:30:51;0.70;;;0.70;;
23617;SDS011;18207;32.078;34.818;2024-01-15T07:33:21;1.00;;;0.90;;
23617;SDS011;18207;32.078;34.818;2024-01-15T07:35:51;0.80;;;0.80;;
23617;SDS011;18207;32.078;34.818;2024-01-15T07:38:21;0.70;;;0.70;;
23617;SDS011;18207;32.078;34.818;2024-01-15T07:40:52;1.02;;;0.80;;
23617;SDS011;18207;32.078;34.818;2024-01-15T07:43:22;0.68;;;0.68;;
23617;SDS011;18207;32.078;34.818;2024-01-15T07:45:52;1.00;;;1.00;;
23617;SDS011;18207;32.078;34.818;2024-01-15T07:48:24;0.65;;;0.65;;
23617;SDS011;18207;32.078;34.818;2024-01-15T07:50:54;0.90;;;0.90;;
23617;SDS011;18207;32.078;34.818;2024-01-15T07:53:24;0.73;;;0.52;;
23617;SDS011;18207;32.078;34.818;2024-01-15T07:55:56;1.00;;;0.90;;
23617;SDS011;18207;32.078;34.818;2024-01-15T07:58:29;1.10;;;1.00;;
23617;SDS011;18207;32.078;34.818;2024-01-15T08:00:59;0.80;;;0.68;;
23617;SDS011;18207;32.078;34.818;2024-01-15T08:03:29;0.60;;;0.60;;
23617;SDS011;18207;32.078;34.818;2024-01-15T08:05:59;0.60;;;0.60;;
23617;SDS011;18207;32.078;34.818;2024-01-15T08:08:29;0.68;;;0.60;;
23617;SDS011;18207;32.078;34.818;2024-01-15T08:11:00;0.80;;;0.80;;
23617;SDS011;18207;32.078;34.818;2024-01-15T08:13:31;0.85;;;0.80;;
23617;SDS011;18207;32.078;34.818;2024-01-15T08:16:02;0.75;;;0.75;;
23617;SDS011;18207;32.078;34.818;2024-01-15T08:18:32;0.75;;;0.70;;
23617;SDS011;18207;32.078;34.818;2024-01-15T08:21:02;1.40;;;0.90;;
23617;SDS011;18207;32.078;34.818;2024-01-15T08:23:34;1.13;;;0.80;;
23617;SDS011;18207;32.078;34.818;2024-01-15T08:26:05;0.90;;;0.90;;
23617;SDS011;18207;32.078;34.818;2024-01-15T08:28:35;0.63;;;0.63;;
23617;SDS011;18207;32.078;34.818;2024-01-15T08:31:05;0.90;;;0.90;;
23617;SDS011;18207;32.078;34.818;2024-01-15T08:33:36;1.27;;;1.00;;
23617;SDS011;18207;32.078;34.818;2024-01-15T08:36:06;1.00;;;1.00;;
23617;SDS011;18207;32.078;34.818;2024-01-15T08:38:37;0.68;;;0.68;;
23617;SDS011;18207;32.078;34.818;2024-01-15T08:41:09;0.75;;;0.75;;
23617;SDS011;18207;32.078;34.818;2024-01-15T08:43:39;0.90;;;0.88;;
23617;SDS011;18207;32.078;34.818;2024-01-15T08:46:09;0.70;;;0.70;;
23617;SDS011;18207;32.078;34.818;2024-01-15T08:48:38;0.60;;;0.60;;
23617;SDS011;18207;32.078;34.818;2024-01-15T08:51:08;0.93;;;0.93;;
23617;SDS011;18207;32.078;34.818;2024-01-15T08:53:39;0.70;;;0.70;;
23617;SDS011;18207;32.078;34.818;2024-01-15T08:56:10;1.00;;;0.90;;
23617;SDS011;18207;32.078;34.818;2024-01-15T08:58:40;0.70;;;0.70;;
23617;SDS011;18207;32.078;34.818;2024-01-15T09:01:10;0.82;;;0.82;;
23617;SDS011;18207;32.078;34.818;2024-01-15T09:03:40;0.70;;;0.70;;
23617;SDS011;18207;32.078;34.818;2024-01-15T09:06:10;0.73;;;0.73;;
23617;SDS011;18207;32.078;34.818;2024-01-15T09:08:41;0.88;;;0.80;;
23617;SDS011;18207;32.078;34.818;2024-01-15T09:11:14;0.77;;;0.77;;
23617;SDS011;18207;32.078;34.818;2024-01-15T09:13:55;1.05;;;0.95;;
23617;SDS011;18207;32.078;34.818;2024-01-15T09:16:25;1.10;;;1.00;;
23617;SDS011;18207;32.078;34.818;2024-01-15T09:18:55;0.70;;;0.70;;
23617;SDS011;18207;32.078;34.818;2024-01-15T09:21:25;0.52;;;0.52;;
23617;SDS011;18207;32.078;34.818;2024-01-15T09:23:55;0.57;;;0.57;;
23617;SDS011;18207;32.078;34.818;2024-01-15T09:26:26;0.68;;;0.68;;
23617;SDS011;18207;32.078;34.818;2024-01-15T09:28:57;0.45;;;0.45;;
23617;SDS011;18207;32.078;34.818;2024-01-15T09:31:26;0.40;;;0.40;;
23617;SDS011;18207;32.078;34.818;2024-01-15T09:33:56;0.57;;;0.57;;
23617;SDS011;18207;32.078;34.818;2024-01-15T09:36:27;0.60;;;0.60;;
23617;SDS011;18207;32.078;34.818;2024-01-15T09:38:57;0.40;;;0.38;;
23617;SDS011;18207;32.078;34.818;2024-01-15T09:41:29;0.50;;;0.50;;
23617;SDS011;18207;32.078;34.818;2024-01-15T09:43:59;0.60;;;0.60;;
23617;SDS011;18207;32.078;34.818;2024-01-15T09:46:29;0.55;;;0.55;;
23617;SDS011;18207;32.078;34.818;2024-01-15T09:49:01;0.82;;;0.82;;
23617;SDS011;18207;32.078;34.818;2024-01-15T09:51:32;0.63;;;0.63;;
23617;SDS011;18207;32.078;34.818;2024-01-15T09:54:02;0.55;;;0.55;;
23617;SDS011;18207;32.078;34.818;2024-01-15T09:56:35;0.73;;;0.73;;
23617;SDS011;18207;32.078;34.818;2024-01-15T09:59:05;0.80;;;0.80;;
23617;SDS011;18207;32.078;34.818;2024-01-15T10:01:35;1.02;;;0.85;;
23617;SDS011;18207;32.078;34.818;2024-01-15T10:04:08;1.00;;;1.00;;
23617;SDS011;18207;32.078;34.818;2024-01-15T10:06:39;0.77;;;0.77;;
23617;SDS011;18207;32.078;34.818;2024-01-15T10:09:14;0.70;;;0.70;;
23617;SDS011;18207;32.078;34.818;2024-01-15T10:11:47;0.88;;;0.88;;
23617;SDS011;18207;32.078;34.818;2024-01-15T10:14:31;0.73;;;0.70;;
23617;SDS011;18207;32.078;34.818;2024-01-15T10:17:01;1.02;;;0.63;;
23617;SDS011;18207;32.078;34.818;2024-01-15T10:19:42;0.52;;;0.52;;
23617;SDS011;18207;32.078;34.818;2024-01-15T10:22:16;0.88;;;0.70;;
23617;SDS011;18207;32.078;34.818;2024-01-15T10:24:46;0.57;;;0.57;;
23617;SDS011;18207;32.078;34.818;2024-01-15T10:27:18;0.57;;;0.57;;
23617;SDS011;18207;32.078;34.818;2024-01-15T10:29:48;0.50;;;0.50;;
23617;SDS011;18207;32.078;34.818;2024-01-15T10:32:22;0.75;;;0.50;;
23617;SDS011;18207;32.078;34.818;2024-01-15T10:34:52;0.45;;;0.45;;
23617;SDS011;18207;32.078;34.818;2024-01-15T10:37:23;0.60;;;0.57;;
23617;SDS011;18207;32.078;34.818;2024-01-15T10:39:55;0.40;;;0.40;;
23617;SDS011;18207;32.078;34.818;2024-01-15T10:42:26;0.70;;;0.43;;
23617;SDS011;18207;32.078;34.818;2024-01-15T10:44:56;0.25;;;0.25;;
23617;SDS011;18207;32.078;34.818;2024-01-15T10:47:26;0.45;;;0.45;;
23617;SDS011;18207;32.078;34.818;2024-01-15T10:49:57;0.57;;;0.57;;
23617;SDS011;18207;32.078;34.818;2024-01-15T10:52:28;0.50;;;0.32;;
23617;SDS011;18207;32.078;34.818;2024-01-15T10:54:59;0.30;;;0.30;;
23617;SDS011;18207;32.078;34.818;2024-01-15T10:57:38;0.45;;;0.43;;
23617;SDS011;18207;32.078;34.818;2024-01-15T11:00:08;0.30;;;0.30;;
23617;SDS011;18207;32.078;34.818;2024-01-15T11:02:42;0.65;;;0.65;;
23617;SDS011;18207;32.078;34.818;2024-01-15T11:05:15;0.43;;;0.43;;
23617;SDS011;18207;32.078;34.818;2024-01-15T11:07:49;0.60;;;0.60;;
23617;SDS011;18207;32.078;34.818;2024-01-15T11:13:15;0.75;;;0.60;;
23617;SDS011;18207;32.078;34.818;2024-01-15T11:15:54;0.47;;;0.47;;
23617;SDS011;18207;32.078;34.818;2024-01-15T11:18:29;0.70;;;0.60;;
23617;SDS011;18207;32.078;34.818;2024-01-15T11:21:19;1.45;;;0.57;;
23617;SDS011;18207;32.078;34.818;2024-01-15T11:23:52;0.88;;;0.57;;
23617;SDS011;18207;32.078;34.818;2024-01-15T11:26:28;0.52;;;0.52;;
23617;SDS011;18207;32.078;34.818;2024-01-15T11:29:05;0.70;;;0.70;;
23617;SDS011;18207;32.078;34.818;2024-01-15T11:37:56;0.30;;;0.30;;
23617;SDS011;18207;32.078;34.818;2024-01-15T11:43:14;0.32;;;0.32;;
23617;SDS011;18207;32.078;34.818;2024-01-15T11:45:51;0.40;;;0.40;;
23617;SDS011;18207;32.078;34.818;2024-01-15T11:48:22;1.65;;;0.40;;
23617;SDS011;18207;32.078;34.818;2024-01-15T11:51:07;0.57;;;0.55;;
23617;SDS011;18207;32.078;34.818;2024-01-15T11:53:43;0.47;;;0.47;;
23617;SDS011;18207;32.078;34.818;2024-01-15T11:56:17;0.50;;;0.50;;
23617;SDS011;18207;32.078;34.818;2024-01-15T11:58:51;0.60;;;0.60;;
23617;SDS011;18207;32.078;34.818;2024-01-15T12:01:24;0.38;;;0.38;;
23617;SDS011;18207;32.078;34.818;2024-01-15T12:03:54;0.47;;;0.47;;
23617;SDS011;18207;32.078;34.818;2024-01-15T12:06:25;0.28;;;0.28;;
23617;SDS011;18207;32.078;34.818;2024-01-15T12:09:05;0.50;;;0.50;;
23617;SDS011;18207;32.078;34.818;2024-01-15T12:11:35;0.52;;;0.52;;
23617;SDS011;18207;32.078;34.818;2024-01-15T12:14:10;1.48;;;0.40;;
23617;SDS011;18207;32.078;34.818;2024-01-15T12:16:41;0.35;;;0.30;;
23617;SDS011;18207;32.078;34.818;2024-01-15T12:19:11;0.13;;;0.13;;
23617;SDS011;18207;32.078;34.818;2024-01-15T12:21:42;0.40;;;0.40;;
23617;SDS011;18207;32.078;34.818;2024-01-15T12:24:14;0.70;;;0.50;;
23617;SDS011;18207;32.078;34.818;2024-01-15T12:26:45;0.35;;;0.30;;
23617;SDS011;18207;32.078;34.818;2024-01-15T12:29:17;0.40;;;0.40;;
23617;SDS011;18207;32.078;34.818;2024-01-15T12:31:49;0.40;;;0.40;;
23617;SDS011;18207;32.078;34.818;2024-01-15T12:34:20;0.43;;;0.38;;
23617;SDS011;18207;32.078;34.818;2024-01-15T12:36:50;0.52;;;0.52;;
23617;SDS011;18207;32.078;34.818;2024-01-15T12:39:20;0.45;;;0.30;;
23617;SDS011;18207;32.078;34.818;2024-01-15T12:41:51;0.38;;;0.38;;
23617;SDS011;18207;32.078;34.818;2024-01-15T12:44:21;0.57;;;0.55;;
23617;SDS011;18207;32.078;34.818;2024-01-15T12:46:53;0.70;;;0.65;;
23617;SDS011;18207;32.078;34.818;2024-01-15T12:49:23;0.80;;;0.80;;
23617;SDS011;18207;32.078;34.818;2024-01-15T12:51:53;1.00;;;0.90;;
23617;SDS011;18207;32.078;34.818;2024-01-15T12:54:25;1.05;;;1.00;;
23617;SDS011;18207;32.078;34.818;2024-01-15T12:56:55;4.75;;;1.50;;
23617;SDS011;18207;32.078;34.818;2024-01-15T12:59:25;1.42;;;1.17;;
23617;SDS011;18207;32.078;34.818;2024-01-15T13:01:57;1.10;;;1.10;;
23617;SDS011;18207;32.078;34.818;2024-01-15T13:04:27;1.13;;;1.02;;
23617;SDS011;18207;32.078;34.818;2024-01-15T13:06:57;1.13;;;1.13;;
23617;SDS011;18207;32.078;34.818;2024-01-15T13:09:27;1.20;;;0.98;;
23617;SDS011;18207;32.078;34.818;2024-01-15T13:11:57;1.52;;;1.20;;
23617;SDS011;18207;32.078;34.818;2024-01-15T13:14:28;1.25;;;1.00;;
23617;SDS011;18207;32.078;34.818;2024-01-15T13:16:59;0.90;;;0.90;;
23617;SDS011;18207;32.078;34.818;2024-01-15T13:19:40;1.52;;;1.00;;
23617;SDS011;18207;32.078;34.818;2024-01-15T13:22:10;0.93;;;0.93;;
23617;SDS011;18207;32.078;34.818;2024-01-15T13:24:41;1.00;;;0.90;;
23617;SDS011;18207;32.078;34.818;2024-01-15T13:27:11;0.90;;;0.90;;
23617;SDS011;18207;32.078;34.818;2024-01-15T13:29:41;0.73;;;0.73;;
23617;SDS011;18207;32.078;34.818;2024-01-15T13:32:16;1.00;;;1.00;;
23617;SDS011;18207;32.078;34.818;2024-01-15T13:34:52;1.25;;;0.90;;
23617;SDS011;18207;32.078;34.818;2024-01-15T13:37:23;0.80;;;0.80;;
23617;SDS011;18207;32.078;34.818;2024-01-15T13:39:54;1.42;;;0.90;;
23617;SDS011;18207;32.078;34.818;2024-01-15T13:42:24;0.80;;;0.80;;
23617;SDS011;18207;32.078;34.818;2024-01-15T13:44:54;1.50;;;0.80;;
23617;SDS011;18207;32.078;34.818;2024-01-15T13:47:27;0.70;;;0.70;;
23617;SDS011;18207;32.078;34.818;2024-01-15T13:49:57;0.60;;;0.60;;
23617;SDS011;18207;32.078;34.818;2024-01-15T13:52:27;0.90;;;0.90;;
23617;SDS011;18207;32.078;34.818;2024-01-15T13:54:57;0.73;;;0.73;;
23617;SDS011;18207;32.078;34.818;2024-01-15T13:57:27;0.80;;;0.80;;
23617;SDS011;18207;32.078;34.818;2024-01-15T13:59:57;0.90;;;0.90;;
23617;SDS011;18207;32.078;34.818;2024-01-15T14:02:28;1.05;;;0.95;;
23617;SDS011;18207;32.078;34.818;2024-01-15T14:05:01;1.67;;;1.00;;
23617;SDS011;18207;32.078;34.818;2024-01-15T14:07:32;1.02;;;1.02;;
23617;SDS011;18207;32.078;34.818;2024-01-15T14:10:02;0.68;;;0.68;;
23617;SDS011;18207;32.078;34.818;2024-01-15T14:12:35;0.82;;;0.82;;
23617;SDS011;18207;32.078;34.818;2024-01-15T14:15:06;1.00;;;1.00;;
23617;SDS011;18207;32.078;34.818;2024-01-15T14:17:40;1.05;;;0.95;;
23617;SDS011;18207;32.078;34.818;2024-01-15T14:20:13;1.38;;;1.27;;
23617;SDS011;18207;32.078;34.818;2024-01-15T14:22:48;1.38;;;1.27;;
23617;SDS011;18207;32.078;34.818;2024-01-15T14:25:18;1.45;;;1.35;;
23617;SDS011;18207;32.078;34.818;2024-01-15T14:27:48;1.23;;;1.13;;
23617;SDS011;18207;32.078;34.818;2024-01-15T14:30:18;1.30;;;1.20;;
23617;SDS011;18207;32.078;34.818;2024-01-15T14:32:50;1.30;;;1.10;;
23617;SDS011;18207;32.078;34.818;2024-01-15T14:35:20;1.02;;;1.02;;
23617;SDS011;18207;32.078;34.818;2024-01-15T14:37:50;1.38;;;1.27;;
23617;SDS011;18207;32.078;34.818;2024-01-15T14:40:21;1.30;;;1.20;;
23617;SDS011;18207;32.078;34.818;2024-01-15T14:42:54;1.40;;;1.30;;
23617;SDS011;18207;32.078;34.818;2024-01-15T14:45:24;1.15;;;1.13;;
23617;SDS011;18207;32.078;34.818;2024-01-15T14:47:59;1.08;;;1.08;;
23617;SDS011;18207;32.078;34.818;2024-01-15T14:50:34;1.40;;;1.15;;
23617;SDS011;18207;32.078;34.818;2024-01-15T14:53:04;1.10;;;1.10;;
23617;SDS011;18207;32.078;34.818;2024-01-15T14:55:35;1.67;;;1.58;;
23617;SDS011;18207;32.078;34.818;2024-01-15T14:58:05;1.25;;;1.17;;
23617;SDS011;18207;32.078;34.818;2024-01-15T15:00:34;1.40;;;1.30;;
23617;SDS011;18207;32.078;34.818;2024-01-15T15:03:06;1.42;;;1.23;;
23617;SDS011;18207;32.078;34.818;2024-01-15T15:05:37;1.40;;;1.33;;
23617;SDS011;18207;32.078;34.818;2024-01-15T15:08:07;1.60;;;1.50;;
23617;SDS011;18207;32.078;34.818;2024-01-15T15:10:38;1.58;;;1.48;;